sensor_id;sensor_type;location;lat;lon;timestamp;P1;durP1;ratioP1;P2;durP2;ratioP2
7813;SDS011;3952;48.364;16.022;2023-07-31T00:02:14;2.00;;;1.50;;
7813;SDS011;3952;48.364;16.022;2023-07-31T00:04:42;1.43;;;1.37;;
7813;SDS011;3952;48.364;16.022;2023-07-31T00:07:10;1.70;;;1.60;;
7813;SDS011;3952;48.364;16.022;2023-07-31T00:09:37;1.53;;;1.43;;
7813;SDS011;3952;48.364;16.022;2023-07-31T00:12:05;2.60;;;1.70;;
7813;SDS011;3952;48.364;16.022;2023-07-31T00:14:33;2.00;;;1.60;;
7813;SDS011;3952;48.364;16.022;2023-07-31T00:17:00;1.47;;;1.37;;
7813;SDS011;3952;48.364;16.022;2023-07-31T00:19:27;1.50;;;1.50;;
7813;SDS011;3952;48.364;16.022;2023-07-31T00:21:55;1.77;;;1.67;;
7813;SDS011;3952;48.364;16.022;2023-07-31T00:24:23;1.80;;;1.70;;
7813;SDS011;3952;48.364;16.022;2023-07-31T00:26:50;1.67;;;1.57;;
7813;SDS011;3952;48.364;16.022;2023-07-31T00:29:18;2.03;;;1.93;;
7813;SDS011;3952;48.364;16.022;2023-07-31T00:31:45;1.70;;;1.60;;
7813;SDS011;3952;48.364;16.022;2023-07-31T00:34:12;2.03;;;1.93;;
7813;SDS011;3952;48.364;16.022;2023-07-31T00:36:39;1.80;;;1.60;;
7813;SDS011;3952;48.364;16.022;2023-07-31T00:39:06;1.80;;;1.50;;
7813;SDS011;3952;48.364;16.022;2023-07-31T00:41:35;2.07;;;1.97;;
7813;SDS011;3952;48.364;16.022;2023-07-31T00:44:02;1.57;;;1.47;;
7813;SDS011;3952;48.364;16.022;2023-07-31T00:46:30;1.77;;;1.67;;
7813;SDS011;3952;48.364;16.022;2023-07-31T00:48:57;1.60;;;1.50;;
7813;SDS011;3952;48.364;16.022;2023-07-31T00:51:25;1.47;;;1.47;;
7813;SDS011;3952;48.364;16.022;2023-07-31T00:53:52;2.40;;;1.80;;
7813;SDS011;3952;48.364;16.022;2023-07-31T00:56:21;2.30;;;2.10;;
7813;SDS011;3952;48.364;16.022;2023-07-31T00:58:50;2.00;;;1.50;;
7813;SDS011;3952;48.364;16.022;2023-07-31T01:01:17;2.20;;;2.00;;
7813;SDS011;3952;48.364;16.022;2023-07-31T01:03:44;1.60;;;1.50;;
7813;SDS011;3952;48.364;16.022;2023-07-31T01:06:14;2.60;;;1.70;;
7813;SDS011;3952;48.364;16.022;2023-07-31T01:08:53;1.80;;;1.70;;
7813;SDS011;3952;48.364;16.022;2023-07-31T01:11:27;2.00;;;1.90;;
7813;SDS011;3952;48.364;16.022;2023-07-31T01:13:58;1.90;;;1.80;;
7813;SDS011;3952;48.364;16.022;2023-07-31T01:16:25;2.97;;;2.10;;
7813;SDS011;3952;48.364;16.022;2023-07-31T01:18:53;2.70;;;1.70;;
7813;SDS011;3952;48.364;16.022;2023-07-31T01:21:22;2.70;;;1.70;;
7813;SDS011;3952;48.364;16.022;2023-07-31T01:24:21;2.10;;;1.87;;
7813;SDS011;3952;48.364;16.022;2023-07-31T01:26:57;2.53;;;1.83;;
7813;SDS011;3952;48.364;16.022;2023-07-31T01:29:34;2.23;;;1.90;;
7813;SDS011;3952;48.364;16.022;2023-07-31T01:32:08;2.07;;;1.97;;
7813;SDS011;3952;48.364;16.022;2023-07-31T01:34:37;2.37;;;2.17;;
7813;SDS011;3952;48.364;16.022;2023-07-31T01:37:05;2.00;;;1.90;;
7813;SDS011;3952;48.364;16.022;2023-07-31T01:39:32;1.77;;;1.67;;
7813;SDS011;3952;48.364;16.022;2023-07-31T01:42:01;1.63;;;1.60;;
7813;SDS011;3952;48.364;16.022;2023-07-31T01:44:28;2.40;;;2.20;;
7813;SDS011;3952;48.364;16.022;2023-07-31T01:46:56;3.50;;;2.00;;
7813;SDS011;3952;48.364;16.022;2023-07-31T01:49:25;1.77;;;1.67;;
7813;SDS011;3952;48.364;16.022;2023-07-31T01:51:52;2.07;;;1.97;;
7813;SDS011;3952;48.364;16.022;2023-07-31T01:54:19;1.97;;;1.77;;
7813;SDS011;3952;48.364;16.022;2023-07-31T01:56:47;2.07;;;1.97;;
7813;SDS011;3952;48.364;16.022;2023-07-31T01:59:15;1.97;;;1.83;;
7813;SDS011;3952;48.364;16.022;2023-07-31T02:01:42;2.70;;;1.83;;
7813;SDS011;3952;48.364;16.022;2023-07-31T02:04:10;2.30;;;2.10;;
7813;SDS011;3952;48.364;16.022;2023-07-31T02:06:37;2.23;;;2.10;;
7813;SDS011;3952;48.364;16.022;2023-07-31T02:09:05;2.20;;;2.00;;
7813;SDS011;3952;48.364;16.022;2023-07-31T02:11:32;2.10;;;2.00;;
7813;SDS011;3952;48.364;16.022;2023-07-31T02:13:59;2.20;;;2.10;;
7813;SDS011;3952;48.364;16.022;2023-07-31T02:16:28;1.83;;;1.73;;
7813;SDS011;3952;48.364;16.022;2023-07-31T02:18:55;2.27;;;2.07;;
7813;SDS011;3952;48.364;16.022;2023-07-31T02:21:22;1.90;;;1.80;;
7813;SDS011;3952;48.364;16.022;2023-07-31T02:23:50;2.03;;;1.93;;
7813;SDS011;3952;48.364;16.022;2023-07-31T02:26:17;1.80;;;1.70;;
7813;SDS011;3952;48.364;16.022;2023-07-31T02:28:44;2.03;;;1.93;;
7813;SDS011;3952;48.364;16.022;2023-07-31T02:31:11;2.07;;;1.93;;
7813;SDS011;3952;48.364;16.022;2023-07-31T02:33:40;2.10;;;1.77;;
7813;SDS011;3952;48.364;16.022;2023-07-31T02:36:08;2.00;;;1.87;;
7813;SDS011;3952;48.364;16.022;2023-07-31T02:38:35;2.00;;;1.90;;
7813;SDS011;3952;48.364;16.022;2023-07-31T02:41:03;1.90;;;1.80;;
7813;SDS011;3952;48.364;16.022;2023-07-31T02:43:30;2.30;;;2.10;;
7813;SDS011;3952;48.364;16.022;2023-07-31T02:45:59;3.30;;;1.80;;
7813;SDS011;3952;48.364;16.022;2023-07-31T02:48:26;2.70;;;2.10;;
7813;SDS011;3952;48.364;16.022;2023-07-31T02:50:55;1.90;;;1.80;;
7813;SDS011;3952;48.364;16.022;2023-07-31T02:53:22;2.07;;;1.87;;
7813;SDS011;3952;48.364;16.022;2023-07-31T02:55:49;2.33;;;1.90;;
7813;SDS011;3952;48.364;16.022;2023-07-31T02:58:16;2.00;;;1.90;;
7813;SDS011;3952;48.364;16.022;2023-07-31T03:00:43;1.93;;;1.83;;
7813;SDS011;3952;48.364;16.022;2023-07-31T03:03:11;3.53;;;2.10;;
7813;SDS011;3952;48.364;16.022;2023-07-31T03:05:38;3.80;;;2.30;;
7813;SDS011;3952;48.364;16.022;2023-07-31T03:08:07;2.20;;;2.10;;
7813;SDS011;3952;48.364;16.022;2023-07-31T03:10:34;2.20;;;2.10;;
7813;SDS011;3952;48.364;16.022;2023-07-31T03:13:01;2.00;;;1.90;;
7813;SDS011;3952;48.364;16.022;2023-07-31T03:15:28;3.10;;;2.43;;
7813;SDS011;3952;48.364;16.022;2023-07-31T03:17:55;2.47;;;2.30;;
7813;SDS011;3952;48.364;16.022;2023-07-31T03:20:23;2.10;;;2.00;;
7813;SDS011;3952;48.364;16.022;2023-07-31T03:22:50;4.60;;;2.07;;
7813;SDS011;3952;48.364;16.022;2023-07-31T03:25:18;2.37;;;2.27;;
7813;SDS011;3952;48.364;16.022;2023-07-31T03:27:45;2.10;;;2.00;;
7813;SDS011;3952;48.364;16.022;2023-07-31T03:30:13;2.20;;;2.10;;
7813;SDS011;3952;48.364;16.022;2023-07-31T03:32:40;2.67;;;2.47;;
7813;SDS011;3952;48.364;16.022;2023-07-31T03:35:07;2.67;;;2.47;;
7813;SDS011;3952;48.364;16.022;2023-07-31T03:37:34;4.23;;;2.27;;
7813;SDS011;3952;48.364;16.022;2023-07-31T03:40:01;3.37;;;2.43;;
7813;SDS011;3952;48.364;16.022;2023-07-31T03:42:31;2.10;;;2.00;;
7813;SDS011;3952;48.364;16.022;2023-07-31T03:44:58;2.87;;;2.67;;
7813;SDS011;3952;48.364;16.022;2023-07-31T03:47:25;2.90;;;2.70;;
7813;SDS011;3952;48.364;16.022;2023-07-31T03:49:53;2.50;;;2.30;;
7813;SDS011;3952;48.364;16.022;2023-07-31T03:52:20;2.10;;;2.00;;
7813;SDS011;3952;48.364;16.022;2023-07-31T03:54:47;1.90;;;1.80;;
7813;SDS011;3952;48.364;16.022;2023-07-31T03:57:14;2.83;;;2.63;;
7813;SDS011;3952;48.364;16.022;2023-07-31T03:59:43;3.57;;;2.30;;
7813;SDS011;3952;48.364;16.022;2023-07-31T04:02:10;3.10;;;2.50;;
7813;SDS011;3952;48.364;16.022;2023-07-31T04:04:39;2.20;;;2.10;;
7813;SDS011;3952;48.364;16.022;2023-07-31T04:07:06;2.83;;;2.27;;
7813;SDS011;3952;48.364;16.022;2023-07-31T04:09:33;2.50;;;2.40;;
7813;SDS011;3952;48.364;16.022;2023-07-31T04:12:01;3.00;;;2.50;;
7813;SDS011;3952;48.364;16.022;2023-07-31T04:14:28;2.50;;;2.40;;
7813;SDS011;3952;48.364;16.022;2023-07-31T04:16:56;2.83;;;2.30;;
7813;SDS011;3952;48.364;16.022;2023-07-31T04:19:24;2.57;;;2.40;;
7813;SDS011;3952;48.364;16.022;2023-07-31T04:21:51;2.50;;;2.40;;
7813;SDS011;3952;48.364;16.022;2023-07-31T04:24:18;2.60;;;2.40;;
7813;SDS011;3952;48.364;16.022;2023-07-31T04:26:49;5.47;;;2.67;;
7813;SDS011;3952;48.364;16.022;2023-07-31T04:29:16;2.30;;;2.20;;
7813;SDS011;3952;48.364;16.022;2023-07-31T04:31:44;3.07;;;2.70;;
7813;SDS011;3952;48.364;16.022;2023-07-31T04:34:13;2.27;;;2.17;;
7813;SDS011;3952;48.364;16.022;2023-07-31T04:36:40;2.50;;;2.40;;
7813;SDS011;3952;48.364;16.022;2023-07-31T04:39:07;2.70;;;2.27;;
7813;SDS011;3952;48.364;16.022;2023-07-31T04:41:34;2.57;;;2.47;;
7813;SDS011;3952;48.364;16.022;2023-07-31T04:44:01;2.40;;;2.30;;
7813;SDS011;3952;48.364;16.022;2023-07-31T04:46:29;2.63;;;2.53;;
7813;SDS011;3952;48.364;16.022;2023-07-31T04:48:57;3.50;;;2.30;;
7813;SDS011;3952;48.364;16.022;2023-07-31T04:51:25;3.27;;;2.90;;
7813;SDS011;3952;48.364;16.022;2023-07-31T04:53:52;2.80;;;2.60;;
7813;SDS011;3952;48.364;16.022;2023-07-31T04:56:19;2.97;;;2.87;;
7813;SDS011;3952;48.364;16.022;2023-07-31T04:58:47;2.70;;;2.60;;
7813;SDS011;3952;48.364;16.022;2023-07-31T05:01:14;2.50;;;2.40;;
7813;SDS011;3952;48.364;16.022;2023-07-31T05:03:41;2.70;;;2.50;;
7813;SDS011;3952;48.364;16.022;2023-07-31T05:06:08;2.80;;;2.60;;
7813;SDS011;3952;48.364;16.022;2023-07-31T05:08:37;2.37;;;2.27;;
7813;SDS011;3952;48.364;16.022;2023-07-31T05:11:04;2.77;;;2.50;;
7813;SDS011;3952;48.364;16.022;2023-07-31T05:13:31;3.20;;;2.77;;
7813;SDS011;3952;48.364;16.022;2023-07-31T05:15:58;2.77;;;2.67;;
7813;SDS011;3952;48.364;16.022;2023-07-31T05:18:25;2.70;;;2.60;;
7813;SDS011;3952;48.364;16.022;2023-07-31T05:20:53;2.50;;;2.40;;
7813;SDS011;3952;48.364;16.022;2023-07-31T05:23:20;3.43;;;2.53;;
7813;SDS011;3952;48.364;16.022;2023-07-31T05:25:49;2.73;;;2.60;;
7813;SDS011;3952;48.364;16.022;2023-07-31T05:28:16;2.67;;;2.50;;
7813;SDS011;3952;48.364;16.022;2023-07-31T05:30:43;3.00;;;2.80;;
7813;SDS011;3952;48.364;16.022;2023-07-31T05:33:10;3.37;;;3.10;;
7813;SDS011;3952;48.364;16.022;2023-07-31T05:35:38;3.13;;;2.93;;
7813;SDS011;3952;48.364;16.022;2023-07-31T05:38:05;3.40;;;3.10;;
7813;SDS011;3952;48.364;16.022;2023-07-31T05:40:32;3.20;;;2.80;;
7813;SDS011;3952;48.364;16.022;2023-07-31T05:43:01;3.00;;;2.90;;
7813;SDS011;3952;48.364;16.022;2023-07-31T05:45:28;3.27;;;3.07;;
7813;SDS011;3952;48.364;16.022;2023-07-31T05:47:55;2.47;;;2.37;;
7813;SDS011;3952;48.364;16.022;2023-07-31T05:50:22;3.00;;;2.77;;
7813;SDS011;3952;48.364;16.022;2023-07-31T05:52:49;2.60;;;2.50;;
7813;SDS011;3952;48.364;16.022;2023-07-31T05:55:17;2.80;;;2.70;;
7813;SDS011;3952;48.364;16.022;2023-07-31T05:57:44;2.97;;;2.73;;
7813;SDS011;3952;48.364;16.022;2023-07-31T06:00:13;2.90;;;2.70;;
7813;SDS011;3952;48.364;16.022;2023-07-31T06:02:41;2.70;;;2.50;;
7813;SDS011;3952;48.364;16.022;2023-07-31T06:05:08;3.93;;;2.90;;
7813;SDS011;3952;48.364;16.022;2023-07-31T06:07:35;3.27;;;2.60;;
7813;SDS011;3952;48.364;16.022;2023-07-31T06:10:03;2.30;;;2.20;;
7813;SDS011;3952;48.364;16.022;2023-07-31T06:12:31;2.60;;;2.40;;
7813;SDS011;3952;48.364;16.022;2023-07-31T06:14:58;4.73;;;2.17;;
7813;SDS011;3952;48.364;16.022;2023-07-31T06:17:27;2.27;;;2.17;;
7813;SDS011;3952;48.364;16.022;2023-07-31T06:19:54;2.23;;;2.07;;
7813;SDS011;3952;48.364;16.022;2023-07-31T06:22:21;3.63;;;2.10;;
7813;SDS011;3952;48.364;16.022;2023-07-31T06:24:48;2.70;;;2.50;;
7813;SDS011;3952;48.364;16.022;2023-07-31T06:27:16;2.03;;;1.83;;
7813;SDS011;3952;48.364;16.022;2023-07-31T06:29:43;3.73;;;2.10;;
7813;SDS011;3952;48.364;16.022;2023-07-31T06:32:10;2.00;;;1.90;;
7813;SDS011;3952;48.364;16.022;2023-07-31T06:34:38;2.10;;;2.00;;
7813;SDS011;3952;48.364;16.022;2023-07-31T06:37:06;2.03;;;1.93;;
7813;SDS011;3952;48.364;16.022;2023-07-31T06:39:33;1.97;;;1.87;;
7813;SDS011;3952;48.364;16.022;2023-07-31T06:42:00;3.07;;;1.90;;
7813;SDS011;3952;48.364;16.022;2023-07-31T06:44:27;2.57;;;2.20;;
7813;SDS011;3952;48.364;16.022;2023-07-31T06:46:54;2.10;;;1.97;;
7813;SDS011;3952;48.364;16.022;2023-07-31T06:49:22;1.97;;;1.80;;
7813;SDS011;3952;48.364;16.022;2023-07-31T06:51:50;2.83;;;1.63;;
7813;SDS011;3952;48.364;16.022;2023-07-31T06:54:18;2.00;;;1.90;;
7813;SDS011;3952;48.364;16.022;2023-07-31T06:56:45;1.70;;;1.50;;
7813;SDS011;3952;48.364;16.022;2023-07-31T06:59:12;1.70;;;1.60;;
7813;SDS011;3952;48.364;16.022;2023-07-31T07:01:39;2.73;;;1.77;;
7813;SDS011;3952;48.364;16.022;2023-07-31T07:04:06;1.50;;;1.40;;
7813;SDS011;3952;48.364;16.022;2023-07-31T07:06:34;1.53;;;1.40;;
7813;SDS011;3952;48.364;16.022;2023-07-31T07:09:02;1.63;;;1.53;;
7813;SDS011;3952;48.364;16.022;2023-07-31T07:11:29;4.10;;;1.50;;
7813;SDS011;3952;48.364;16.022;2023-07-31T07:13:57;3.03;;;1.67;;
7813;SDS011;3952;48.364;16.022;2023-07-31T07:16:24;1.60;;;1.50;;
7813;SDS011;3952;48.364;16.022;2023-07-31T07:18:52;2.37;;;1.40;;
7813;SDS011;3952;48.364;16.022;2023-07-31T07:21:19;1.93;;;1.63;;
7813;SDS011;3952;48.364;16.022;2023-07-31T07:23:46;1.57;;;1.47;;
7813;SDS011;3952;48.364;16.022;2023-07-31T07:26:15;1.70;;;1.60;;
7813;SDS011;3952;48.364;16.022;2023-07-31T07:28:42;2.53;;;2.03;;
7813;SDS011;3952;48.364;16.022;2023-07-31T07:31:09;2.08;;;1.88;;
7813;SDS011;3952;48.364;16.022;2023-07-31T07:33:36;2.08;;;1.30;;
7813;SDS011;3952;48.364;16.022;2023-07-31T07:36:04;1.90;;;1.80;;
7813;SDS011;3952;48.364;16.022;2023-07-31T07:38:34;1.38;;;1.27;;
7813;SDS011;3952;48.364;16.022;2023-07-31T07:41:04;1.60;;;1.50;;
7813;SDS011;3952;48.364;16.022;2023-07-31T07:43:33;1.50;;;1.40;;
7813;SDS011;3952;48.364;16.022;2023-07-31T07:46:00;2.17;;;1.98;;
7813;SDS011;3952;48.364;16.022;2023-07-31T07:48:27;2.08;;;1.60;;
7813;SDS011;3952;48.364;16.022;2023-07-31T07:50:54;6.43;;;1.48;;
7813;SDS011;3952;48.364;16.022;2023-07-31T07:53:22;1.95;;;1.67;;
7813;SDS011;3952;48.364;16.022;2023-07-31T07:55:49;1.88;;;1.63;;
7813;SDS011;3952;48.364;16.022;2023-07-31T07:58:16;1.73;;;1.58;;
7813;SDS011;3952;48.364;16.022;2023-07-31T08:00:49;2.60;;;1.48;;
7813;SDS011;3952;48.364;16.022;2023-07-31T08:03:17;1.75;;;1.50;;
7813;SDS011;3952;48.364;16.022;2023-07-31T08:05:45;5.53;;;1.27;;
7813;SDS011;3952;48.364;16.022;2023-07-31T08:08:14;2.58;;;1.63;;
7813;SDS011;3952;48.364;16.022;2023-07-31T08:10:42;1.80;;;1.52;;
7813;SDS011;3952;48.364;16.022;2023-07-31T08:13:09;1.48;;;1.38;;
7813;SDS011;3952;48.364;16.022;2023-07-31T08:15:37;4.78;;;1.60;;
7813;SDS011;3952;48.364;16.022;2023-07-31T08:18:05;1.60;;;1.50;;
7813;SDS011;3952;48.364;16.022;2023-07-31T08:20:33;1.70;;;1.52;;
7813;SDS011;3952;48.364;16.022;2023-07-31T08:23:00;3.85;;;1.50;;
7813;SDS011;3952;48.364;16.022;2023-07-31T08:25:27;1.88;;;1.75;;
7813;SDS011;3952;48.364;16.022;2023-07-31T08:27:54;1.50;;;1.40;;
7813;SDS011;3952;48.364;16.022;2023-07-31T08:30:22;3.67;;;1.42;;
7813;SDS011;3952;48.364;16.022;2023-07-31T08:32:49;1.58;;;1.45;;
7813;SDS011;3952;48.364;16.022;2023-07-31T08:35:18;1.70;;;1.60;;
7813;SDS011;3952;48.364;16.022;2023-07-31T08:37:45;1.77;;;1.50;;
7813;SDS011;3952;48.364;16.022;2023-07-31T08:40:12;2.08;;;1.83;;
7813;SDS011;3952;48.364;16.022;2023-07-31T08:42:43;2.13;;;1.98;;
7813;SDS011;3952;48.364;16.022;2023-07-31T08:45:12;1.67;;;1.25;;
7813;SDS011;3952;48.364;16.022;2023-07-31T08:47:42;1.70;;;1.60;;
7813;SDS011;3952;48.364;16.022;2023-07-31T08:50:10;1.60;;;1.50;;
7813;SDS011;3952;48.364;16.022;2023-07-31T08:52:40;1.70;;;1.42;;
7813;SDS011;3952;48.364;16.022;2023-07-31T08:55:08;3.08;;;1.27;;
7813;SDS011;3952;48.364;16.022;2023-07-31T08:57:35;2.30;;;1.67;;
7813;SDS011;3952;48.364;16.022;2023-07-31T09:00:04;2.67;;;1.50;;
7813;SDS011;3952;48.364;16.022;2023-07-31T09:02:34;1.85;;;1.15;;
7813;SDS011;3952;48.364;16.022;2023-07-31T09:05:05;4.40;;;1.65;;
7813;SDS011;3952;48.364;16.022;2023-07-31T09:07:34;2.10;;;1.23;;
7813;SDS011;3952;48.364;16.022;2023-07-31T09:10:03;1.65;;;1.30;;
7813;SDS011;3952;48.364;16.022;2023-07-31T09:12:31;2.60;;;1.42;;
7813;SDS011;3952;48.364;16.022;2023-07-31T09:14:58;1.40;;;1.30;;
7813;SDS011;3952;48.364;16.022;2023-07-31T09:17:30;4.03;;;1.52;;
7813;SDS011;3952;48.364;16.022;2023-07-31T09:19:58;1.83;;;1.40;;
7813;SDS011;3952;48.364;16.022;2023-07-31T09:22:38;1.60;;;1.50;;
7813;SDS011;3952;48.364;16.022;2023-07-31T09:25:15;1.38;;;1.27;;
7813;SDS011;3952;48.364;16.022;2023-07-31T09:27:46;1.50;;;1.40;;
7813;SDS011;3952;48.364;16.022;2023-07-31T09:30:18;1.67;;;1.58;;
7813;SDS011;3952;48.364;16.022;2023-07-31T09:32:46;1.83;;;1.42;;
7813;SDS011;3952;48.364;16.022;2023-07-31T09:35:18;1.45;;;1.35;;
7813;SDS011;3952;48.364;16.022;2023-07-31T09:37:50;1.50;;;1.40;;
7813;SDS011;3952;48.364;16.022;2023-07-31T09:40:29;1.65;;;1.55;;
7813;SDS011;3952;48.364;16.022;2023-07-31T09:42:56;1.58;;;1.10;;
7813;SDS011;3952;48.364;16.022;2023-07-31T09:45:25;1.58;;;1.13;;
7813;SDS011;3952;48.364;16.022;2023-07-31T09:47:53;1.98;;;1.55;;
7813;SDS011;3952;48.364;16.022;2023-07-31T09:50:21;1.60;;;1.40;;
7813;SDS011;3952;48.364;16.022;2023-07-31T09:52:49;2.50;;;1.65;;
7813;SDS011;3952;48.364;16.022;2023-07-31T09:55:17;2.22;;;1.50;;
7813;SDS011;3952;48.364;16.022;2023-07-31T09:57:47;1.50;;;1.40;;
7813;SDS011;3952;48.364;16.022;2023-07-31T10:00:16;1.83;;;1.40;;
7813;SDS011;3952;48.364;16.022;2023-07-31T10:02:45;1.60;;;1.40;;
7813;SDS011;3952;48.364;16.022;2023-07-31T10:05:13;1.55;;;1.40;;
7813;SDS011;3952;48.364;16.022;2023-07-31T10:07:42;1.20;;;1.20;;
7813;SDS011;3952;48.364;16.022;2023-07-31T10:10:17;1.85;;;1.33;;
7813;SDS011;3952;48.364;16.022;2023-07-31T10:12:49;1.35;;;1.25;;
7813;SDS011;3952;48.364;16.022;2023-07-31T10:15:18;3.80;;;1.35;;
7813;SDS011;3952;48.364;16.022;2023-07-31T10:17:47;1.08;;;1.08;;
7813;SDS011;3952;48.364;16.022;2023-07-31T10:20:14;1.67;;;1.38;;
7813;SDS011;3952;48.364;16.022;2023-07-31T10:22:42;2.72;;;1.35;;
7813;SDS011;3952;48.364;16.022;2023-07-31T10:25:11;1.50;;;1.40;;
7813;SDS011;3952;48.364;16.022;2023-07-31T10:27:38;1.88;;;1.60;;
7813;SDS011;3952;48.364;16.022;2023-07-31T10:30:08;2.10;;;1.50;;
7813;SDS011;3952;48.364;16.022;2023-07-31T10:32:38;3.03;;;1.50;;
7813;SDS011;3952;48.364;16.022;2023-07-31T10:35:08;2.95;;;1.70;;
7813;SDS011;3952;48.364;16.022;2023-07-31T10:37:36;1.63;;;1.52;;
7813;SDS011;3952;48.364;16.022;2023-07-31T10:40:04;2.20;;;1.40;;
7813;SDS011;3952;48.364;16.022;2023-07-31T10:42:33;1.25;;;1.15;;
7813;SDS011;3952;48.364;16.022;2023-07-31T10:45:03;2.00;;;1.42;;
7813;SDS011;3952;48.364;16.022;2023-07-31T10:47:37;1.25;;;1.15;;
7813;SDS011;3952;48.364;16.022;2023-07-31T10:50:11;1.58;;;1.48;;
7813;SDS011;3952;48.364;16.022;2023-07-31T10:52:39;1.48;;;1.38;;
7813;SDS011;3952;48.364;16.022;2023-07-31T10:58:05;1.50;;;1.40;;
7813;SDS011;3952;48.364;16.022;2023-07-31T11:00:33;2.05;;;1.52;;
7813;SDS011;3952;48.364;16.022;2023-07-31T11:03:04;1.52;;;1.42;;
7813;SDS011;3952;48.364;16.022;2023-07-31T11:05:43;1.60;;;1.50;;
7813;SDS011;3952;48.364;16.022;2023-07-31T11:08:16;1.60;;;1.50;;
7813;SDS011;3952;48.364;16.022;2023-07-31T11:10:46;1.23;;;1.23;;
7813;SDS011;3952;48.364;16.022;2023-07-31T11:13:14;1.50;;;1.30;;
7813;SDS011;3952;48.364;16.022;2023-07-31T11:15:41;1.50;;;1.35;;
7813;SDS011;3952;48.364;16.022;2023-07-31T11:18:10;1.40;;;1.30;;
7813;SDS011;3952;48.364;16.022;2023-07-31T11:20:37;2.53;;;1.30;;
7813;SDS011;3952;48.364;16.022;2023-07-31T11:23:06;1.40;;;1.30;;
7813;SDS011;3952;48.364;16.022;2023-07-31T11:25:35;1.48;;;1.35;;
7813;SDS011;3952;48.364;16.022;2023-07-31T11:28:04;2.67;;;1.20;;
7813;SDS011;3952;48.364;16.022;2023-07-31T11:30:32;3.25;;;1.30;;
7813;SDS011;3952;48.364;16.022;2023-07-31T11:33:00;1.60;;;1.50;;
7813;SDS011;3952;48.364;16.022;2023-07-31T11:35:31;1.60;;;1.50;;
7813;SDS011;3952;48.364;16.022;2023-07-31T11:37:59;5.43;;;1.80;;
7813;SDS011;3952;48.364;16.022;2023-07-31T11:40:26;2.78;;;1.48;;
7813;SDS011;3952;48.364;16.022;2023-07-31T11:42:55;3.05;;;1.25;;
7813;SDS011;3952;48.364;16.022;2023-07-31T11:45:24;1.55;;;1.45;;
7813;SDS011;3952;48.364;16.022;2023-07-31T11:47:54;1.50;;;1.40;;
7813;SDS011;3952;48.364;16.022;2023-07-31T11:50:22;1.70;;;1.60;;
7813;SDS011;3952;48.364;16.022;2023-07-31T11:52:54;1.75;;;1.50;;
7813;SDS011;3952;48.364;16.022;2023-07-31T11:55:25;1.48;;;1.38;;
7813;SDS011;3952;48.364;16.022;2023-07-31T11:57:54;1.40;;;1.30;;
7813;SDS011;3952;48.364;16.022;2023-07-31T12:00:23;1.70;;;1.60;;
7813;SDS011;3952;48.364;16.022;2023-07-31T12:02:51;1.52;;;1.40;;
7813;SDS011;3952;48.364;16.022;2023-07-31T12:05:19;1.83;;;1.63;;
7813;SDS011;3952;48.364;16.022;2023-07-31T12:07:49;1.60;;;1.50;;
7813;SDS011;3952;48.364;16.022;2023-07-31T12:10:26;1.45;;;1.35;;
7813;SDS011;3952;48.364;16.022;2023-07-31T12:12:58;2.22;;;1.40;;
7813;SDS011;3952;48.364;16.022;2023-07-31T12:15:40;1.63;;;1.52;;
7813;SDS011;3952;48.364;16.022;2023-07-31T12:18:09;1.55;;;1.45;;
7813;SDS011;3952;48.364;16.022;2023-07-31T12:20:41;3.10;;;1.60;;
7813;SDS011;3952;48.364;16.022;2023-07-31T12:23:13;1.73;;;1.63;;
7813;SDS011;3952;48.364;16.022;2023-07-31T12:25:45;1.80;;;1.70;;
7813;SDS011;3952;48.364;16.022;2023-07-31T12:28:12;2.70;;;1.25;;
7813;SDS011;3952;48.364;16.022;2023-07-31T12:30:40;1.77;;;1.48;;
7813;SDS011;3952;48.364;16.022;2023-07-31T12:33:12;3.83;;;1.90;;
7813;SDS011;3952;48.364;16.022;2023-07-31T12:35:41;2.53;;;1.70;;
7813;SDS011;3952;48.364;16.022;2023-07-31T12:38:10;2.53;;;1.70;;
7813;SDS011;3952;48.364;16.022;2023-07-31T12:40:38;1.10;;;1.10;;
7813;SDS011;3952;48.364;16.022;2023-07-31T12:43:08;1.67;;;1.58;;
7813;SDS011;3952;48.364;16.022;2023-07-31T12:45:35;3.65;;;2.03;;
7813;SDS011;3952;48.364;16.022;2023-07-31T12:48:03;1.80;;;1.70;;
7813;SDS011;3952;48.364;16.022;2023-07-31T12:50:30;2.03;;;1.90;;
7813;SDS011;3952;48.364;16.022;2023-07-31T12:52:57;1.88;;;1.52;;
7813;SDS011;3952;48.364;16.022;2023-07-31T12:55:24;2.03;;;1.48;;
7813;SDS011;3952;48.364;16.022;2023-07-31T12:57:52;1.92;;;1.83;;
7813;SDS011;3952;48.364;16.022;2023-07-31T13:00:20;2.13;;;1.90;;
7813;SDS011;3952;48.364;16.022;2023-07-31T13:02:47;1.58;;;1.48;;
7813;SDS011;3952;48.364;16.022;2023-07-31T13:05:14;1.60;;;1.50;;
7813;SDS011;3952;48.364;16.022;2023-07-31T13:07:42;2.05;;;1.15;;
7813;SDS011;3952;48.364;16.022;2023-07-31T13:10:09;1.73;;;1.63;;
7813;SDS011;3952;48.364;16.022;2023-07-31T13:12:36;1.35;;;1.30;;
7813;SDS011;3952;48.364;16.022;2023-07-31T13:15:04;1.73;;;1.63;;
7813;SDS011;3952;48.364;16.022;2023-07-31T13:17:34;3.17;;;1.40;;
7813;SDS011;3952;48.364;16.022;2023-07-31T13:20:03;1.60;;;1.50;;
7813;SDS011;3952;48.364;16.022;2023-07-31T13:22:31;2.30;;;1.80;;
7813;SDS011;3952;48.364;16.022;2023-07-31T13:24:58;2.42;;;1.25;;
7813;SDS011;3952;48.364;16.022;2023-07-31T13:27:25;1.75;;;1.65;;
7813;SDS011;3952;48.364;16.022;2023-07-31T13:29:52;1.58;;;1.48;;
7813;SDS011;3952;48.364;16.022;2023-07-31T13:32:19;1.95;;;1.50;;
7813;SDS011;3952;48.364;16.022;2023-07-31T13:34:48;1.55;;;1.40;;
7813;SDS011;3952;48.364;16.022;2023-07-31T13:37:16;1.48;;;1.38;;
7813;SDS011;3952;48.364;16.022;2023-07-31T13:39:43;3.10;;;1.27;;
7813;SDS011;3952;48.364;16.022;2023-07-31T13:42:10;1.10;;;1.05;;
7813;SDS011;3952;48.364;16.022;2023-07-31T13:44:38;2.35;;;1.52;;
7813;SDS011;3952;48.364;16.022;2023-07-31T13:47:05;2.05;;;1.50;;
7813;SDS011;3952;48.364;16.022;2023-07-31T13:49:33;1.20;;;1.20;;
7813;SDS011;3952;48.364;16.022;2023-07-31T13:52:02;4.43;;;1.60;;
7813;SDS011;3952;48.364;16.022;2023-07-31T13:54:30;1.48;;;1.38;;
7813;SDS011;3952;48.364;16.022;2023-07-31T13:56:57;1.75;;;1.35;;
7813;SDS011;3952;48.364;16.022;2023-07-31T13:59:24;3.40;;;1.48;;
7813;SDS011;3952;48.364;16.022;2023-07-31T14:01:51;1.60;;;1.50;;
7813;SDS011;3952;48.364;16.022;2023-07-31T14:04:18;1.65;;;1.55;;
7813;SDS011;3952;48.364;16.022;2023-07-31T14:06:46;1.65;;;1.55;;
7813;SDS011;3952;48.364;16.022;2023-07-31T14:09:17;1.48;;;1.40;;
7813;SDS011;3952;48.364;16.022;2023-07-31T14:11:44;1.90;;;1.80;;
7813;SDS011;3952;48.364;16.022;2023-07-31T14:14:11;3.15;;;1.45;;
7813;SDS011;3952;48.364;16.022;2023-07-31T14:16:39;1.60;;;1.50;;
7813;SDS011;3952;48.364;16.022;2023-07-31T14:19:06;1.70;;;1.60;;
7813;SDS011;3952;48.364;16.022;2023-07-31T14:21:33;2.42;;;1.63;;
7813;SDS011;3952;48.364;16.022;2023-07-31T14:24:01;1.63;;;1.52;;
7813;SDS011;3952;48.364;16.022;2023-07-31T14:26:30;1.50;;;1.33;;
7813;SDS011;3952;48.364;16.022;2023-07-31T14:28:57;1.70;;;1.60;;
7813;SDS011;3952;48.364;16.022;2023-07-31T14:31:24;2.60;;;1.55;;
7813;SDS011;3952;48.364;16.022;2023-07-31T14:33:51;3.17;;;1.65;;
7813;SDS011;3952;48.364;16.022;2023-07-31T14:36:18;1.65;;;1.55;;
7813;SDS011;3952;48.364;16.022;2023-07-31T14:38:46;1.90;;;1.80;;
7813;SDS011;3952;48.364;16.022;2023-07-31T14:41:13;2.00;;;1.20;;
7813;SDS011;3952;48.364;16.022;2023-07-31T14:43:41;1.63;;;1.52;;
7813;SDS011;3952;48.364;16.022;2023-07-31T14:46:08;1.80;;;1.70;;
7813;SDS011;3952;48.364;16.022;2023-07-31T14:48:36;2.33;;;1.70;;
7813;SDS011;3952;48.364;16.022;2023-07-31T14:51:03;1.85;;;1.70;;
7813;SDS011;3952;48.364;16.022;2023-07-31T14:53:30;1.63;;;1.52;;
7813;SDS011;3952;48.364;16.022;2023-07-31T14:55:57;1.73;;;1.63;;
7813;SDS011;3952;48.364;16.022;2023-07-31T14:58:24;1.88;;;1.67;;
7813;SDS011;3952;48.364;16.022;2023-07-31T15:00:53;1.83;;;1.65;;
7813;SDS011;3952;48.364;16.022;2023-07-31T15:03:20;1.35;;;1.33;;
7813;SDS011;3952;48.364;16.022;2023-07-31T15:05:47;1.95;;;1.80;;
7813;SDS011;3952;48.364;16.022;2023-07-31T15:08:15;1.70;;;1.42;;
7813;SDS011;3952;48.364;16.022;2023-07-31T15:10:42;4.18;;;1.73;;